sensor_id;sensor_type;location;lat;lon;timestamp;pressure;altitude;pressure_sealevel;temperature;humidity
51067;BME280;37112;45.892;-123.962;2023-12-20T00:00:32;100285.25;;;12.41;100.00
51067;BME280;37112;45.892;-123.962;2023-12-20T00:03:18;100284.97;;;12.41;100.00
51067;BME280;37112;45.892;-123.962;2023-12-20T00:05:49;100288.20;;;12.40;100.00
51067;BME280;37112;45.892;-123.962;2023-12-20T00:08:20;100293.45;;;12.39;100.00
51067;BME280;37112;45.892;-123.962;2023-12-20T00:10:50;100298.41;;;12.37;100.00
51067;BME280;37112;45.892;-123.962;2023-12-20T00:13:21;100305.54;;;12.35;100.00
51067;BME280;37112;45.892;-123.962;2023-12-20T00:15:51;100313.36;;;12.33;100.00
51067;BME280;37112;45.892;-123.962;2023-12-20T00:18:21;100321.48;;;12.32;100.00
51067;BME280;37112;45.892;-123.962;2023-12-20T00:20:51;100325.61;;;12.31;100.00
51067;BME280;37112;45.892;-123.962;2023-12-20T00:23:22;100330.98;;;12.31;100.00
51067;BME280;37112;45.892;-123.962;2023-12-20T00:25:52;100333.05;;;12.30;100.00
51067;BME280;37112;45.892;-123.962;2023-12-20T00:28:23;100341.52;;;12.31;100.00
51067;BME280;37112;45.892;-123.962;2023-12-20T00:30:53;100341.41;;;12.29;100.00
51067;BME280;37112;45.892;-123.962;2023-12-20T00:33:24;100346.64;;;12.28;100.00
51067;BME280;37112;45.892;-123.962;2023-12-20T00:35:54;100349.63;;;12.26;100.00
51067;BME280;37112;45.892;-123.962;2023-12-20T00:38:12;100350.63;;;12.25;100.00
51067;BME280;37112;45.892;-123.962;2023-12-20T00:40:43;100348.36;;;12.25;100.00
51067;BME280;37112;45.892;-123.962;2023-12-20T00:43:13;100347.27;;;12.23;100.00
51067;BME280;37112;45.892;-123.962;2023-12-20T00:45:43;100349.32;;;12.22;100.00
51067;BME280;37112;45.892;-123.962;2023-12-20T00:48:13;100352.67;;;12.20;100.00
51067;BME280;37112;45.892;-123.962;2023-12-20T00:50:44;100352.70;;;12.17;100.00
51067;BME280;37112;45.892;-123.962;2023-12-20T00:53:14;100356.41;;;12.13;100.00
51067;BME280;37112;45.892;-123.962;2023-12-20T00:55:44;100362.02;;;12.10;100.00
51067;BME280;37112;45.892;-123.962;2023-12-20T00:58:15;100361.58;;;12.07;100.00
51067;BME280;37112;45.892;-123.962;2023-12-20T01:00:45;100371.79;;;12.06;100.00
51067;BME280;37112;45.892;-123.962;2023-12-20T01:03:16;100369.70;;;12.05;100.00
51067;BME280;37112;45.892;-123.962;2023-12-20T01:05:46;100376.30;;;12.03;100.00
51067;BME280;37112;45.892;-123.962;2023-12-20T01:08:16;100375.08;;;11.97;100.00
51067;BME280;37112;45.892;-123.962;2023-12-20T01:10:46;100379.11;;;11.94;100.00
51067;BME280;37112;45.892;-123.962;2023-12-20T01:13:16;100376.34;;;11.91;100.00
51067;BME280;37112;45.892;-123.962;2023-12-20T01:15:47;100379.67;;;11.89;100.00
51067;BME280;37112;45.892;-123.962;2023-12-20T01:18:17;100383.20;;;11.87;100.00
51067;BME280;37112;45.892;-123.962;2023-12-20T01:20:48;100382.33;;;11.87;100.00
51067;BME280;37112;45.892;-123.962;2023-12-20T01:23:18;100379.50;;;11.85;100.00
51067;BME280;37112;45.892;-123.962;2023-12-20T01:25:48;100376.88;;;11.82;100.00
51067;BME280;37112;45.892;-123.962;2023-12-20T01:28:19;100375.55;;;11.76;100.00
51067;BME280;37112;45.892;-123.962;2023-12-20T01:30:48;100380.55;;;11.73;100.00
51067;BME280;37112;45.892;-123.962;2023-12-20T01:33:19;100380.95;;;11.70;100.00
51067;BME280;37112;45.892;-123.962;2023-12-20T01:35:50;100391.80;;;11.65;100.00
51067;BME280;37112;45.892;-123.962;2023-12-20T01:38:20;100401.49;;;11.60;100.00
51067;BME280;37112;45.892;-123.962;2023-12-20T01:40:50;100408.20;;;11.58;100.00
51067;BME280;37112;45.892;-123.962;2023-12-20T01:43:20;100412.87;;;11.55;100.00
51067;BME280;37112;45.892;-123.962;2023-12-20T01:45:53;100413.59;;;11.51;100.00
51067;BME280;37112;45.892;-123.962;2023-12-20T01:48:26;100418.66;;;11.45;100.00
51067;BME280;37112;45.892;-123.962;2023-12-20T01:50:47;100419.34;;;11.40;100.00
51067;BME280;37112;45.892;-123.962;2023-12-20T01:53:18;100419.61;;;11.37;100.00
51067;BME280;37112;45.892;-123.962;2023-12-20T01:55:50;100420.73;;;11.32;100.00
51067;BME280;37112;45.892;-123.962;2023-12-20T01:58:24;100426.89;;;11.27;100.00
51067;BME280;37112;45.892;-123.962;2023-12-20T02:00:55;100426.57;;;11.20;100.00
51067;BME280;37112;45.892;-123.962;2023-12-20T02:03:25;100426.67;;;11.11;100.00
51067;BME280;37112;45.892;-123.962;2023-12-20T02:05:56;100426.37;;;11.04;100.00
51067;BME280;37112;45.892;-123.962;2023-12-20T02:08:27;100424.56;;;10.97;100.00
51067;BME280;37112;45.892;-123.962;2023-12-20T02:10:47;100420.67;;;10.92;100.00
51067;BME280;37112;45.892;-123.962;2023-12-20T02:13:17;100415.95;;;10.86;100.00
51067;BME280;37112;45.892;-123.962;2023-12-20T02:15:47;100418.59;;;10.81;100.00
51067;BME280;37112;45.892;-123.962;2023-12-20T02:18:18;100417.67;;;10.77;100.00
51067;BME280;37112;45.892;-123.962;2023-12-20T02:20:48;100417.55;;;10.74;100.00
51067;BME280;37112;45.892;-123.962;2023-12-20T02:23:07;100415.08;;;10.71;100.00
51067;BME280;37112;45.892;-123.962;2023-12-20T02:25:38;100413.55;;;10.65;100.00
51067;BME280;37112;45.892;-123.962;2023-12-20T02:28:08;100413.94;;;10.57;100.00
51067;BME280;37112;45.892;-123.962;2023-12-20T02:30:39;100414.05;;;10.51;100.00
51067;BME280;37112;45.892;-123.962;2023-12-20T02:33:12;100419.18;;;10.47;100.00
51067;BME280;37112;45.892;-123.962;2023-12-20T02:35:44;100423.64;;;10.41;100.00
51067;BME280;37112;45.892;-123.962;2023-12-20T02:38:14;100430.55;;;10.37;100.00
51067;BME280;37112;45.892;-123.962;2023-12-20T02:40:44;100432.98;;;10.35;100.00
51067;BME280;37112;45.892;-123.962;2023-12-20T02:43:17;100434.83;;;10.33;100.00
51067;BME280;37112;45.892;-123.962;2023-12-20T02:45:47;100433.52;;;10.29;100.00
51067;BME280;37112;45.892;-123.962;2023-12-20T02:48:17;100436.23;;;10.26;100.00
51067;BME280;37112;45.892;-123.962;2023-12-20T02:50:48;100439.77;;;10.24;100.00
51067;BME280;37112;45.892;-123.962;2023-12-20T02:53:18;100441.84;;;10.22;100.00
51067;BME280;37112;45.892;-123.962;2023-12-20T02:55:49;100447.70;;;10.22;100.00
51067;BME280;37112;45.892;-123.962;2023-12-20T02:58:19;100452.11;;;10.19;100.00
51067;BME280;37112;45.892;-123.962;2023-12-20T03:00:50;100452.68;;;10.16;100.00
51067;BME280;37112;45.892;-123.962;2023-12-20T03:03:21;100460.80;;;10.15;100.00
51067;BME280;37112;45.892;-123.962;2023-12-20T03:05:51;100457.38;;;10.13;100.00
51067;BME280;37112;45.892;-123.962;2023-12-20T03:08:22;100461.16;;;10.12;100.00
51067;BME280;37112;45.892;-123.962;2023-12-20T03:10:55;100463.23;;;10.10;100.00
51067;BME280;37112;45.892;-123.962;2023-12-20T03:13:25;100470.50;;;10.08;100.00
51067;BME280;37112;45.892;-123.962;2023-12-20T03:15:56;100483.38;;;10.03;100.00
51067;BME280;37112;45.892;-123.962;2023-12-20T03:18:26;100490.95;;;9.99;100.00
51067;BME280;37112;45.892;-123.962;2023-12-20T03:20:57;100500.79;;;9.95;100.00
51067;BME280;37112;45.892;-123.962;2023-12-20T03:23:47;100504.65;;;9.88;100.00
51067;BME280;37112;45.892;-123.962;2023-12-20T03:26:21;100511.05;;;9.86;100.00
51067;BME280;37112;45.892;-123.962;2023-12-20T03:28:51;100513.17;;;9.83;100.00
51067;BME280;37112;45.892;-123.962;2023-12-20T03:31:22;100510.98;;;9.78;100.00
51067;BME280;37112;45.892;-123.962;2023-12-20T03:33:40;100515.08;;;9.75;100.00
51067;BME280;37112;45.892;-123.962;2023-12-20T03:36:11;100513.96;;;9.73;100.00
51067;BME280;37112;45.892;-123.962;2023-12-20T03:38:41;100520.54;;;9.70;100.00
51067;BME280;37112;45.892;-123.962;2023-12-20T03:41:12;100528.27;;;9.69;100.00
51067;BME280;37112;45.892;-123.962;2023-12-20T03:43:42;100530.02;;;9.64;100.00
51067;BME280;37112;45.892;-123.962;2023-12-20T03:46:13;100527.60;;;9.58;100.00
51067;BME280;37112;45.892;-123.962;2023-12-20T03:48:43;100528.95;;;9.54;100.00
51067;BME280;37112;45.892;-123.962;2023-12-20T03:51:13;100537.04;;;9.49;100.00
51067;BME280;37112;45.892;-123.962;2023-12-20T03:53:44;100531.29;;;9.45;100.00
51067;BME280;37112;45.892;-123.962;2023-12-20T03:56:15;100533.41;;;9.43;100.00
51067;BME280;37112;45.892;-123.962;2023-12-20T03:58:44;100535.08;;;9.39;100.00
51067;BME280;37112;45.892;-123.962;2023-12-20T04:01:15;100534.85;;;9.34;100.00
51067;BME280;37112;45.892;-123.962;2023-12-20T04:03:46;100533.60;;;9.32;100.00
51067;BME280;37112;45.892;-123.962;2023-12-20T04:06:20;100533.73;;;9.30;100.00
51067;BME280;37112;45.892;-123.962;2023-12-20T04:08:39;100533.61;;;9.26;100.00
51067;BME280;37112;45.892;-123.962;2023-12-20T04:11:09;100538.27;;;9.23;100.00
51067;BME280;37112;45.892;-123.962;2023-12-20T04:13:40;100534.95;;;9.19;100.00
51067;BME280;37112;45.892;-123.962;2023-12-20T04:16:10;100539.61;;;9.18;100.00
51067;BME280;37112;45.892;-123.962;2023-12-20T04:18:41;100543.92;;;9.17;100.00
51067;BME280;37112;45.892;-123.962;2023-12-20T04:21:01;100548.56;;;9.17;100.00
51067;BME280;37112;45.892;-123.962;2023-12-20T04:23:31;100549.48;;;9.16;100.00
51067;BME280;37112;45.892;-123.962;2023-12-20T04:26:02;100552.60;;;9.14;100.00
51067;BME280;37112;45.892;-123.962;2023-12-20T04:28:32;100551.00;;;9.12;100.00
51067;BME280;37112;45.892;-123.962;2023-12-20T04:31:02;100557.66;;;9.10;100.00
51067;BME280;37112;45.892;-123.962;2023-12-20T04:33:32;100559.98;;;9.07;100.00
51067;BME280;37112;45.892;-123.962;2023-12-20T04:36:03;100565.21;;;9.03;100.00
51067;BME280;37112;45.892;-123.962;2023-12-20T04:38:34;100566.89;;;8.99;100.00
51067;BME280;37112;45.892;-123.962;2023-12-20T04:41:05;100570.23;;;8.93;100.00
51067;BME280;37112;45.892;-123.962;2023-12-20T04:43:35;100575.10;;;8.89;100.00
51067;BME280;37112;45.892;-123.962;2023-12-20T04:46:05;100577.92;;;8.86;100.00
51067;BME280;37112;45.892;-123.962;2023-12-20T04:48:36;100582.96;;;8.85;100.00
51067;BME280;37112;45.892;-123.962;2023-12-20T04:51:16;100587.25;;;8.82;100.00
51067;BME280;37112;45.892;-123.962;2023-12-20T04:53:39;100587.08;;;8.79;100.00
51067;BME280;37112;45.892;-123.962;2023-12-20T04:56:09;100596.17;;;8.78;100.00
51067;BME280;37112;45.892;-123.962;2023-12-20T04:58:39;100596.46;;;8.76;100.00
51067;BME280;37112;45.892;-123.962;2023-12-20T05:01:10;100597.40;;;8.73;100.00
51067;BME280;37112;45.892;-123.962;2023-12-20T05:03:41;100594.19;;;8.67;100.00
51067;BME280;37112;45.892;-123.962;2023-12-20T05:06:11;100594.98;;;8.62;100.00
51067;BME280;37112;45.892;-123.962;2023-12-20T05:08:43;100596.27;;;8.59;100.00
51067;BME280;37112;45.892;-123.962;2023-12-20T05:11:13;100598.56;;;8.56;100.00
51067;BME280;37112;45.892;-123.962;2023-12-20T05:13:32;100602.76;;;8.54;100.00
51067;BME280;37112;45.892;-123.962;2023-12-20T05:16:15;100602.88;;;8.53;100.00
51067;BME280;37112;45.892;-123.962;2023-12-20T05:18:47;100604.64;;;8.50;100.00
51067;BME280;37112;45.892;-123.962;2023-12-20T05:21:10;100608.06;;;8.49;100.00
51067;BME280;37112;45.892;-123.962;2023-12-20T05:23:40;100607.59;;;8.48;100.00
51067;BME280;37112;45.892;-123.962;2023-12-20T05:26:10;100608.09;;;8.48;100.00
51067;BME280;37112;45.892;-123.962;2023-12-20T05:28:41;100603.14;;;8.48;100.00
51067;BME280;37112;45.892;-123.962;2023-12-20T05:31:00;100598.95;;;8.47;100.00
51067;BME280;37112;45.892;-123.962;2023-12-20T05:33:30;100597.61;;;8.46;100.00
51067;BME280;37112;45.892;-123.962;2023-12-20T05:36:01;100596.13;;;8.44;100.00
51067;BME280;37112;45.892;-123.962;2023-12-20T05:38:31;100596.88;;;8.44;100.00
51067;BME280;37112;45.892;-123.962;2023-12-20T05:41:01;100598.98;;;8.44;100.00
51067;BME280;37112;45.892;-123.962;2023-12-20T05:43:32;100595.97;;;8.44;100.00
51067;BME280;37112;45.892;-123.962;2023-12-20T05:46:02;100600.02;;;8.50;100.00
51067;BME280;37112;45.892;-123.962;2023-12-20T05:48:22;100600.73;;;8.59;100.00
51067;BME280;37112;45.892;-123.962;2023-12-20T05:50:52;100604.08;;;8.65;100.00
51067;BME280;37112;45.892;-123.962;2023-12-20T05:53:22;100608.92;;;8.69;100.00
51067;BME280;37112;45.892;-123.962;2023-12-20T05:55:53;100613.93;;;8.77;100.00
51067;BME280;37112;45.892;-123.962;2023-12-20T05:58:23;100611.83;;;8.82;100.00
51067;BME280;37112;45.892;-123.962;2023-12-20T06:00:53;100613.92;;;8.86;100.00
51067;BME280;37112;45.892;-123.962;2023-12-20T06:03:23;100611.10;;;8.89;100.00
51067;BME280;37112;45.892;-123.962;2023-12-20T06:05:53;100609.58;;;8.93;100.00
51067;BME280;37112;45.892;-123.962;2023-12-20T06:08:41;100610.95;;;8.97;100.00
51067;BME280;37112;45.892;-123.962;2023-12-20T06:11:12;100613.67;;;8.96;100.00
51067;BME280;37112;45.892;-123.962;2023-12-20T06:13:43;100616.92;;;8.91;100.00
51067;BME280;37112;45.892;-123.962;2023-12-20T06:16:13;100624.64;;;8.90;100.00
51067;BME280;37112;45.892;-123.962;2023-12-20T06:18:43;100623.54;;;8.97;100.00
51067;BME280;37112;45.892;-123.962;2023-12-20T06:21:14;100624.77;;;9.02;100.00
51067;BME280;37112;45.892;-123.962;2023-12-20T06:23:44;100625.47;;;9.02;100.00
51067;BME280;37112;45.892;-123.962;2023-12-20T06:26:14;100629.09;;;9.04;100.00
51067;BME280;37112;45.892;-123.962;2023-12-20T06:28:44;100637.45;;;9.04;100.00
51067;BME280;37112;45.892;-123.962;2023-12-20T06:31:14;100643.89;;;9.02;100.00
51067;BME280;37112;45.892;-123.962;2023-12-20T06:33:45;100647.48;;;9.01;100.00
51067;BME280;37112;45.892;-123.962;2023-12-20T06:36:15;100652.77;;;9.02;100.00
51067;BME280;37112;45.892;-123.962;2023-12-20T06:38:46;100657.91;;;9.02;100.00
51067;BME280;37112;45.892;-123.962;2023-12-20T06:41:17;100657.80;;;9.04;100.00
51067;BME280;37112;45.892;-123.962;2023-12-20T06:43:48;100662.20;;;9.07;100.00
51067;BME280;37112;45.892;-123.962;2023-12-20T06:46:18;100668.20;;;9.07;100.00
51067;BME280;37112;45.892;-123.962;2023-12-20T06:48:48;100671.20;;;9.02;100.00
51067;BME280;37112;45.892;-123.962;2023-12-20T06:51:19;100678.62;;;8.96;100.00
51067;BME280;37112;45.892;-123.962;2023-12-20T06:53:53;100684.64;;;8.90;100.00
51067;BME280;37112;45.892;-123.962;2023-12-20T06:56:24;100690.53;;;8.87;100.00
51067;BME280;37112;45.892;-123.962;2023-12-20T06:58:54;100691.15;;;8.83;100.00
51067;BME280;37112;45.892;-123.962;2023-12-20T07:01:24;100691.44;;;8.75;100.00
51067;BME280;37112;45.892;-123.962;2023-12-20T07:03:55;100693.30;;;8.68;100.00
51067;BME280;37112;45.892;-123.962;2023-12-20T07:06:26;100691.33;;;8.62;100.00
51067;BME280;37112;45.892;-123.962;2023-12-20T07:08:56;100692.58;;;8.56;100.00
51067;BME280;37112;45.892;-123.962;2023-12-20T07:11:26;100698.90;;;8.51;100.00
51067;BME280;37112;45.892;-123.962;2023-12-20T07:13:44;100705.27;;;8.48;100.00
51067;BME280;37112;45.892;-123.962;2023-12-20T07:16:06;100708.09;;;8.45;100.00
51067;BME280;37112;45.892;-123.962;2023-12-20T07:18:36;100720.11;;;8.45;100.00
51067;BME280;37112;45.892;-123.962;2023-12-20T07:21:07;100724.81;;;8.46;100.00
51067;BME280;37112;45.892;-123.962;2023-12-20T07:23:37;100730.83;;;8.47;100.00
51067;BME280;37112;45.892;-123.962;2023-12-20T07:26:07;100738.93;;;8.44;100.00
51067;BME280;37112;45.892;-123.962;2023-12-20T07:28:37;100742.33;;;8.44;100.00
51067;BME280;37112;45.892;-123.962;2023-12-20T07:31:08;100744.09;;;8.41;100.00
51067;BME280;37112;45.892;-123.962;2023-12-20T07:33:39;100746.45;;;8.36;100.00
51067;BME280;37112;45.892;-123.962;2023-12-20T07:36:10;100747.67;;;8.33;100.00
51067;BME280;37112;45.892;-123.962;2023-12-20T07:38:40;100752.71;;;8.31;100.00
51067;BME280;37112;45.892;-123.962;2023-12-20T07:41:13;100750.70;;;8.29;100.00
51067;BME280;37112;45.892;-123.962;2023-12-20T07:43:44;100753.65;;;8.28;100.00
51067;BME280;37112;45.892;-123.962;2023-12-20T07:46:14;100760.96;;;8.27;100.00
51067;BME280;37112;45.892;-123.962;2023-12-20T07:48:44;100763.67;;;8.22;100.00
51067;BME280;37112;45.892;-123.962;2023-12-20T07:51:15;100767.41;;;8.16;100.00
51067;BME280;37112;45.892;-123.962;2023-12-20T07:53:45;100772.23;;;8.09;100.00
51067;BME280;37112;45.892;-123.962;2023-12-20T07:56:20;100774.58;;;8.02;100.00
51067;BME280;37112;45.892;-123.962;2023-12-20T07:58:50;100778.52;;;7.98;100.00
51067;BME280;37112;45.892;-123.962;2023-12-20T08:01:21;100775.34;;;7.95;100.00
51067;BME280;37112;45.892;-123.962;2023-12-20T08:03:52;100774.41;;;7.92;100.00
51067;BME280;37112;45.892;-123.962;2023-12-20T08:06:42;100771.78;;;7.85;100.00
51067;BME280;37112;45.892;-123.962;2023-12-20T08:09:01;100773.90;;;7.82;100.00
51067;BME280;37112;45.892;-123.962;2023-12-20T08:11:34;100774.27;;;7.78;100.00
51067;BME280;37112;45.892;-123.962;2023-12-20T08:13:52;100774.82;;;7.78;100.00
51067;BME280;37112;45.892;-123.962;2023-12-20T08:16:23;100773.73;;;7.79;100.00
51067;BME280;37112;45.892;-123.962;2023-12-20T08:18:53;100771.96;;;7.82;100.00
51067;BME280;37112;45.892;-123.962;2023-12-20T08:21:23;100770.44;;;7.84;100.00
51067;BME280;37112;45.892;-123.962;2023-12-20T08:23:42;100774.71;;;7.87;100.00
51067;BME280;37112;45.892;-123.962;2023-12-20T08:26:05;100771.02;;;7.90;100.00
51067;BME280;37112;45.892;-123.962;2023-12-20T08:28:36;100774.69;;;7.93;100.00
51067;BME280;37112;45.892;-123.962;2023-12-20T08:31:06;100775.68;;;7.95;100.00
51067;BME280;37112;45.892;-123.962;2023-12-20T08:33:43;100776.87;;;7.95;100.00
51067;BME280;37112;45.892;-123.962;2023-12-20T08:36:13;100774.75;;;7.96;100.00
51067;BME280;37112;45.892;-123.962;2023-12-20T08:38:46;100779.38;;;7.92;100.00
51067;BME280;37112;45.892;-123.962;2023-12-20T08:41:16;100772.46;;;7.86;100.00
51067;BME280;37112;45.892;-123.962;2023-12-20T08:43:47;100768.23;;;7.82;100.00
51067;BME280;37112;45.892;-123.962;2023-12-20T08:46:06;100767.98;;;7.80;100.00
51067;BME280;37112;45.892;-123.962;2023-12-20T08:48:38;100763.33;;;7.81;100.00
51067;BME280;37112;45.892;-123.962;2023-12-20T08:51:08;100766.20;;;7.84;100.00
51067;BME280;37112;45.892;-123.962;2023-12-20T08:53:39;100767.54;;;7.82;100.00
51067;BME280;37112;45.892;-123.962;2023-12-20T08:56:10;100768.05;;;7.82;100.00
51067;BME280;37112;45.892;-123.962;2023-12-20T08:58:40;100772.03;;;7.84;100.00
51067;BME280;37112;45.892;-123.962;2023-12-20T09:01:10;100774.42;;;7.85;100.00
51067;BME280;37112;45.892;-123.962;2023-12-20T09:03:41;100773.30;;;7.87;100.00
51067;BME280;37112;45.892;-123.962;2023-12-20T09:06:12;100774.38;;;7.87;100.00
51067;BME280;37112;45.892;-123.962;2023-12-20T09:08:42;100778.90;;;7.84;100.00
51067;BME280;37112;45.892;-123.962;2023-12-20T09:11:12;100772.44;;;7.80;100.00
51067;BME280;37112;45.892;-123.962;2023-12-20T09:13:43;100769.40;;;7.74;100.00
51067;BME280;37112;45.892;-123.962;2023-12-20T09:16:13;100776.88;;;7.70;100.00
51067;BME280;37112;45.892;-123.962;2023-12-20T09:18:44;100779.73;;;7.66;100.00
51067;BME280;37112;45.892;-123.962;2023-12-20T09:21:14;100776.68;;;7.64;100.00
51067;BME280;37112;45.892;-123.962;2023-12-20T09:23:45;100781.49;;;7.66;100.00
51067;BME280;37112;45.892;-123.962;2023-12-20T09:26:15;100781.70;;;7.69;100.00
51067;BME280;37112;45.892;-123.962;2023-12-20T09:28:46;100782.98;;;7.72;100.00
51067;BME280;37112;45.892;-123.962;2023-12-20T09:31:16;100784.83;;;7.73;100.00
51067;BME280;37112;45.892;-123.962;2023-12-20T09:33:46;100783.42;;;7.73;100.00
51067;BME280;37112;45.892;-123.962;2023-12-20T09:36:16;100782.01;;;7.70;100.00
51067;BME280;37112;45.892;-123.962;2023-12-20T09:38:47;100785.23;;;7.66;100.00
51067;BME280;37112;45.892;-123.962;2023-12-20T09:41:17;100786.73;;;7.64;100.00
51067;BME280;37112;45.892;-123.962;2023-12-20T09:43:51;100792.94;;;7.64;100.00
51067;BME280;37112;45.892;-123.962;2023-12-20T09:46:26;100797.22;;;7.63;100.00
51067;BME280;37112;45.892;-123.962;2023-12-20T09:48:58;100800.13;;;7.62;100.00
51067;BME280;37112;45.892;-123.962;2023-12-20T09:51:30;100802.27;;;7.58;100.00
51067;BME280;37112;45.892;-123.962;2023-12-20T09:54:02;100806.60;;;7.56;100.00
51067;BME280;37112;45.892;-123.962;2023-12-20T09:56:32;100807.23;;;7.54;100.00
51067;BME280;37112;45.892;-123.962;2023-12-20T09:59:03;100803.71;;;7.50;100.00
51067;BME280;37112;45.892;-123.962;2023-12-20T10:01:33;100798.35;;;7.48;100.00
51067;BME280;37112;45.892;-123.962;2023-12-20T10:03:54;100800.80;;;7.45;100.00
51067;BME280;37112;45.892;-123.962;2023-12-20T10:06:25;100798.69;;;7.42;100.00
51067;BME280;37112;45.892;-123.962;2023-12-20T10:08:56;100802.02;;;7.39;100.00
51067;BME280;37112;45.892;-123.962;2023-12-20T10:11:26;100807.89;;;7.38;100.00
51067;BME280;37112;45.892;-123.962;2023-12-20T10:14:00;100807.63;;;7.36;100.00
51067;BME280;37112;45.892;-123.962;2023-12-20T10:16:31;100814.21;;;7.33;100.00
51067;BME280;37112;45.892;-123.962;2023-12-20T10:19:02;100818.33;;;7.28;100.00
51067;BME280;37112;45.892;-123.962;2023-12-20T10:21:32;100824.23;;;7.26;100.00
51067;BME280;37112;45.892;-123.962;2023-12-20T10:24:03;100835.61;;;7.25;100.00
51067;BME280;37112;45.892;-123.962;2023-12-20T10:26:33;100835.71;;;7.27;100.00
51067;BME280;37112;45.892;-123.962;2023-12-20T10:29:04;100829.11;;;7.28;100.00
51067;BME280;37112;45.892;-123.962;2023-12-20T10:31:35;100830.13;;;7.25;100.00
51067;BME280;37112;45.892;-123.962;2023-12-20T10:34:07;100830.40;;;7.23;100.00
51067;BME280;37112;45.892;-123.962;2023-12-20T10:36:37;100836.23;;;7.23;100.00
51067;BME280;37112;45.892;-123.962;2023-12-20T10:39:08;100839.59;;;7.23;100.00
51067;BME280;37112;45.892;-123.962;2023-12-20T10:41:29;100840.59;;;7.21;100.00
51067;BME280;37112;45.892;-123.962;2023-12-20T10:44:01;100840.30;;;7.16;100.00
51067;BME280;37112;45.892;-123.962;2023-12-20T10:46:32;100842.44;;;7.13;100.00
51067;BME280;37112;45.892;-123.962;2023-12-20T10:49:04;100846.72;;;7.09;100.00
51067;BME280;37112;45.892;-123.962;2023-12-20T10:51:35;100848.73;;;7.07;100.00
51067;BME280;37112;45.892;-123.962;2023-12-20T10:54:07;100843.48;;;7.06;100.00
51067;BME280;37112;45.892;-123.962;2023-12-20T10:56:38;100836.69;;;7.05;100.00
51067;BME280;37112;45.892;-123.962;2023-12-20T10:59:11;100839.20;;;7.04;100.00
51067;BME280;37112;45.892;-123.962;2023-12-20T11:01:42;100839.30;;;7.02;100.00
51067;BME280;37112;45.892;-123.962;2023-12-20T11:04:18;100839.96;;;6.98;100.00
51067;BME280;37112;45.892;-123.962;2023-12-20T11:06:52;100841.90;;;6.95;100.00
51067;BME280;37112;45.892;-123.962;2023-12-20T11:09:26;100843.39;;;6.94;100.00
51067;BME280;37112;45.892;-123.962;2023-12-20T11:12:09;100844.85;;;6.93;100.00
51067;BME280;37112;45.892;-123.962;2023-12-20T11:14:43;100839.98;;;6.95;100.00
51067;BME280;37112;45.892;-123.962;2023-12-20T11:17:16;100838.83;;;6.96;100.00
51067;BME280;37112;45.892;-123.962;2023-12-20T11:20:07;100842.09;;;7.02;100.00
51067;BME280;37112;45.892;-123.962;2023-12-20T11:22:40;100845.40;;;7.10;100.00
51067;BME280;37112;45.892;-123.962;2023-12-20T11:25:22;100845.92;;;7.13;100.00
51067;BME280;37112;45.892;-123.962;2023-12-20T11:28:08;100846.34;;;7.16;100.00
51067;BME280;37112;45.892;-123.962;2023-12-20T11:30:48;100844.96;;;7.19;100.00
51067;BME280;37112;45.892;-123.962;2023-12-20T11:33:23;100846.52;;;7.22;100.00
51067;BME280;37112;45.892;-123.962;2023-12-20T11:35:59;100845.30;;;7.26;100.00
51067;BME280;37112;45.892;-123.962;2023-12-20T11:38:19;100845.73;;;7.28;100.00
51067;BME280;37112;45.892;-123.962;2023-12-20T11:40:50;100845.14;;;7.29;100.00
51067;BME280;37112;45.892;-123.962;2023-12-20T11:43:35;100848.42;;;7.30;100.00
51067;BME280;37112;45.892;-123.962;2023-12-20T11:46:09;100853.83;;;7.32;100.00
51067;BME280;37112;45.892;-123.962;2023-12-20T11:48:39;100853.02;;;7.34;100.00
51067;BME280;37112;45.892;-123.962;2023-12-20T11:51:14;100858.11;;;7.37;100.00
51067;BME280;37112;45.892;-123.962;2023-12-20T11:53:33;100857.30;;;7.40;100.00
51067;BME280;37112;45.892;-123.962;2023-12-20T11:56:06;100855.34;;;7.36;100.00
51067;BME280;37112;45.892;-123.962;2023-12-20T11:58:25;100855.84;;;7.30;100.00
51067;BME280;37112;45.892;-123.962;2023-12-20T12:00:57;100863.29;;;7.23;100.00
51067;BME280;37112;45.892;-123.962;2023-12-20T12:03:27;100865.92;;;7.16;100.00
51067;BME280;37112;45.892;-123.962;2023-12-20T12:05:57;100873.80;;;7.14;100.00
51067;BME280;37112;45.892;-123.962;2023-12-20T12:08:29;100872.16;;;7.12;100.00
51067;BME280;37112;45.892;-123.962;2023-12-20T12:10:59;100872.21;;;7.08;100.00
51067;BME280;37112;45.892;-123.962;2023-12-20T12:13:30;100888.39;;;7.02;100.00
51067;BME280;37112;45.892;-123.962;2023-12-20T12:16:01;100896.54;;;6.97;100.00
51067;BME280;37112;45.892;-123.962;2023-12-20T12:18:31;100905.34;;;6.94;100.00
51067;BME280;37112;45.892;-123.962;2023-12-20T12:21:05;100908.45;;;6.92;100.00
51067;BME280;37112;45.892;-123.962;2023-12-20T12:23:42;100914.55;;;6.90;100.00
51067;BME280;37112;45.892;-123.962;2023-12-20T12:26:12;100919.16;;;6.89;100.00
51067;BME280;37112;45.892;-123.962;2023-12-20T12:28:43;100921.16;;;6.88;100.00
51067;BME280;37112;45.892;-123.962;2023-12-20T12:31:16;100922.88;;;6.86;100.00
51067;BME280;37112;45.892;-123.962;2023-12-20T12:33:36;100924.81;;;6.82;100.00